logo
Search for airport 
image banner adimage banner adimage banner ad
image banner ad

SKGN - Las Guabinas

Located in , Colombia

ICAO - , IATA -

Data provided by Airmate  

General information

Coordinates: N4°42'39" W71°33'1"
Elevation is 451 feet MSL.
Magnetic variation is -10° East
View others Airports in Casanare

Operational data

Special qualification required
Current time UTC:
Current local time:
Weather at : - ( 0 km )
METAR: KATL 111852Z 33009KT 10SM CLR 10/M04 A3017 RMK AO2 SLP220 T01001039
TAF: KATL 111726Z 1118/1224 32010KT P6SM SKC FM120000 34006KT P6SM SKC FM121100 05005KT P6SM SKC
View NOTAMs / SUP AIP / TFR affecting this airport [VIEW]
Communications frequencies: [VIEW]

Runways:

RWY identifierQFULength (ft)Width (ft)SurfaceLDA (ft)
0434°220952DIRT
22214°220952DIRT

Airport contact information

Address: Colombia

Satellite view of SKGN